sensor_id;sensor_type;location;lat;lon;timestamp;pressure;altitude;pressure_sealevel;temperature;humidity
34103;BME280;20381;54.498;18.206;2023-04-23T00:01:06;99224.90;;;9.65;51.74
34103;BME280;20381;54.498;18.206;2023-04-23T00:03:36;99223.22;;;9.64;51.79
34103;BME280;20381;54.498;18.206;2023-04-23T00:06:05;99222.39;;;9.63;51.85
34103;BME280;20381;54.498;18.206;2023-04-23T00:08:33;99220.68;;;9.62;51.88
34103;BME280;20381;54.498;18.206;2023-04-23T00:11:01;99221.61;;;9.61;51.84
34103;BME280;20381;54.498;18.206;2023-04-23T00:13:27;99216.56;;;9.58;51.80
34103;BME280;20381;54.498;18.206;2023-04-23T00:15:54;99209.64;;;9.57;51.87
34103;BME280;20381;54.498;18.206;2023-04-23T00:18:20;99207.97;;;9.56;51.83
34103;BME280;20381;54.498;18.206;2023-04-23T00:20:47;99207.44;;;9.58;51.92
34103;BME280;20381;54.498;18.206;2023-04-23T00:23:13;99207.97;;;9.56;51.80
34103;BME280;20381;54.498;18.206;2023-04-23T00:25:39;99202.76;;;9.56;51.94
34103;BME280;20381;54.498;18.206;2023-04-23T00:28:06;99201.08;;;9.55;51.94
34103;BME280;20381;54.498;18.206;2023-04-23T00:30:32;99204.06;;;9.56;51.92
34103;BME280;20381;54.498;18.206;2023-04-23T00:32:59;99204.59;;;9.54;52.17
34103;BME280;20381;54.498;18.206;2023-04-23T00:35:25;99201.30;;;9.51;52.28
34103;BME280;20381;54.498;18.206;2023-04-23T00:37:51;99203.23;;;9.47;52.09
34103;BME280;20381;54.498;18.206;2023-04-23T00:40:17;99193.72;;;9.46;52.28
34103;BME280;20381;54.498;18.206;2023-04-23T00:42:45;99195.88;;;9.47;52.10
34103;BME280;20381;54.498;18.206;2023-04-23T00:45:12;99192.34;;;9.48;52.30
34103;BME280;20381;54.498;18.206;2023-04-23T00:47:39;99190.20;;;9.47;52.24
34103;BME280;20381;54.498;18.206;2023-04-23T00:50:07;99184.06;;;9.48;52.23
34103;BME280;20381;54.498;18.206;2023-04-23T00:52:34;99183.13;;;9.49;52.18
34103;BME280;20381;54.498;18.206;2023-04-23T00:55:01;99187.97;;;9.48;52.22
34103;BME280;20381;54.498;18.206;2023-04-23T00:57:28;99183.69;;;9.47;52.17
34103;BME280;20381;54.498;18.206;2023-04-23T00:59:54;99181.09;;;9.47;52.24
34103;BME280;20381;54.498;18.206;2023-04-23T01:02:23;99174.57;;;9.47;52.28
34103;BME280;20381;54.498;18.206;2023-04-23T01:04:51;99181.98;;;9.46;52.35
34103;BME280;20381;54.498;18.206;2023-04-23T01:07:20;99177.70;;;9.45;52.41
34103;BME280;20381;54.498;18.206;2023-04-23T01:09:49;99177.34;;;9.44;52.36
34103;BME280;20381;54.498;18.206;2023-04-23T01:12:16;99171.20;;;9.45;52.33
34103;BME280;20381;54.498;18.206;2023-04-23T01:14:43;99172.87;;;9.46;52.44
34103;BME280;20381;54.498;18.206;2023-04-23T01:17:10;99170.66;;;9.47;52.34
34103;BME280;20381;54.498;18.206;2023-04-23T01:19:38;99170.66;;;9.47;52.46
34103;BME280;20381;54.498;18.206;2023-04-23T01:22:09;99171.03;;;9.48;52.44
34103;BME280;20381;54.498;18.206;2023-04-23T01:24:36;99172.43;;;9.47;52.47
34103;BME280;20381;54.498;18.206;2023-04-23T01:27:04;99170.66;;;9.47;52.45
34103;BME280;20381;54.498;18.206;2023-04-23T01:29:31;99172.43;;;9.47;52.42
34103;BME280;20381;54.498;18.206;2023-04-23T01:31:59;99170.73;;;9.46;52.39
34103;BME280;20381;54.498;18.206;2023-04-23T01:34:25;99165.98;;;9.45;52.36
34103;BME280;20381;54.498;18.206;2023-04-23T01:36:53;99166.35;;;9.46;52.39
34103;BME280;20381;54.498;18.206;2023-04-23T01:39:20;99167.49;;;9.49;52.44
34103;BME280;20381;54.498;18.206;2023-04-23T01:41:47;99163.98;;;9.50;52.44
34103;BME280;20381;54.498;18.206;2023-04-23T01:44:14;99168.10;;;9.54;52.45
34103;BME280;20381;54.498;18.206;2023-04-23T01:46:40;99164.97;;;9.56;52.50
34103;BME280;20381;54.498;18.206;2023-04-23T01:49:07;99167.78;;;9.60;52.49
34103;BME280;20381;54.498;18.206;2023-04-23T01:51:34;99159.52;;;9.61;52.40
34103;BME280;20381;54.498;18.206;2023-04-23T01:54:00;99160.36;;;9.61;52.51
34103;BME280;20381;54.498;18.206;2023-04-23T01:56:27;99155.15;;;9.61;52.63
34103;BME280;20381;54.498;18.206;2023-04-23T01:58:53;99149.16;;;9.59;52.57
34103;BME280;20381;54.498;18.206;2023-04-23T02:01:21;99150.47;;;9.59;52.54
34103;BME280;20381;54.498;18.206;2023-04-23T02:03:49;99143.58;;;9.58;52.51
34103;BME280;20381;54.498;18.206;2023-04-23T02:06:15;99136.66;;;9.57;52.62
34103;BME280;20381;54.498;18.206;2023-04-23T02:08:42;99147.86;;;9.59;52.59
34103;BME280;20381;54.498;18.206;2023-04-23T02:11:08;99137.97;;;9.57;52.51
34103;BME280;20381;54.498;18.206;2023-04-23T02:13:34;99143.58;;;9.58;52.58
34103;BME280;20381;54.498;18.206;2023-04-23T02:16:01;99132.22;;;9.59;52.57
34103;BME280;20381;54.498;18.206;2023-04-23T02:18:27;99136.50;;;9.60;52.71
34103;BME280;20381;54.498;18.206;2023-04-23T02:20:54;99135.59;;;9.61;52.50
34103;BME280;20381;54.498;18.206;2023-04-23T02:23:21;99132.99;;;9.61;52.72
34103;BME280;20381;54.498;18.206;2023-04-23T02:25:47;99125.17;;;9.61;52.55
34103;BME280;20381;54.498;18.206;2023-04-23T02:28:13;99122.47;;;9.63;52.71
34103;BME280;20381;54.498;18.206;2023-04-23T02:30:39;99121.27;;;9.61;52.42
34103;BME280;20381;54.498;18.206;2023-04-23T02:33:07;99122.16;;;9.60;52.43
34103;BME280;20381;54.498;18.206;2023-04-23T02:35:34;99120.12;;;9.58;52.45
34103;BME280;20381;54.498;18.206;2023-04-23T02:38:00;99121.96;;;9.56;52.41
34103;BME280;20381;54.498;18.206;2023-04-23T02:40:27;99117.69;;;9.55;52.39
34103;BME280;20381;54.498;18.206;2023-04-23T02:42:53;99118.59;;;9.54;52.41
34103;BME280;20381;54.498;18.206;2023-04-23T02:45:19;99123.96;;;9.51;52.41
34103;BME280;20381;54.498;18.206;2023-04-23T02:47:45;99120.59;;;9.49;52.44
34103;BME280;20381;54.498;18.206;2023-04-23T02:50:12;99111.09;;;9.48;52.43
34103;BME280;20381;54.498;18.206;2023-04-23T02:52:38;99112.93;;;9.46;52.47
34103;BME280;20381;54.498;18.206;2023-04-23T02:55:05;99113.33;;;9.47;52.51
34103;BME280;20381;54.498;18.206;2023-04-23T02:57:32;99111.27;;;9.45;52.45
34103;BME280;20381;54.498;18.206;2023-04-23T02:59:58;99108.81;;;9.42;52.58
34103;BME280;20381;54.498;18.206;2023-04-23T03:02:24;99103.77;;;9.39;52.62
34103;BME280;20381;54.498;18.206;2023-04-23T03:04:50;99104.67;;;9.38;52.64
34103;BME280;20381;54.498;18.206;2023-04-23T03:07:17;99100.39;;;9.37;52.81
34103;BME280;20381;54.498;18.206;2023-04-23T03:09:43;99106.53;;;9.36;52.72
34103;BME280;20381;54.498;18.206;2023-04-23T03:12:10;99098.72;;;9.36;52.72
34103;BME280;20381;54.498;18.206;2023-04-23T03:14:36;99093.51;;;9.36;52.91
34103;BME280;20381;54.498;18.206;2023-04-23T03:17:02;99095.28;;;9.35;52.92
34103;BME280;20381;54.498;18.206;2023-04-23T03:19:29;99094.41;;;9.35;52.75
34103;BME280;20381;54.498;18.206;2023-04-23T03:21:55;99088.36;;;9.34;52.67
34103;BME280;20381;54.498;18.206;2023-04-23T03:24:21;99086.59;;;9.35;52.78
34103;BME280;20381;54.498;18.206;2023-04-23T03:26:47;99083.99;;;9.35;52.73
34103;BME280;20381;54.498;18.206;2023-04-23T03:29:13;99091.38;;;9.35;52.96
34103;BME280;20381;54.498;18.206;2023-04-23T03:31:40;99084.86;;;9.35;52.96
34103;BME280;20381;54.498;18.206;2023-04-23T03:34:06;99080.48;;;9.36;52.83
34103;BME280;20381;54.498;18.206;2023-04-23T03:36:32;99079.55;;;9.37;52.91
34103;BME280;20381;54.498;18.206;2023-04-23T03:38:58;99085.69;;;9.36;52.93
34103;BME280;20381;54.498;18.206;2023-04-23T03:41:24;99081.78;;;9.36;52.95
34103;BME280;20381;54.498;18.206;2023-04-23T03:43:51;99080.48;;;9.36;52.85
34103;BME280;20381;54.498;18.206;2023-04-23T03:46:17;99074.88;;;9.35;52.88
34103;BME280;20381;54.498;18.206;2023-04-23T03:48:43;99072.66;;;9.36;52.94
34103;BME280;20381;54.498;18.206;2023-04-23T03:51:09;99071.67;;;9.38;52.87
34103;BME280;20381;54.498;18.206;2023-04-23T03:53:36;99074.17;;;9.40;52.89
34103;BME280;20381;54.498;18.206;2023-04-23T03:56:02;99070.67;;;9.41;52.84
34103;BME280;20381;54.498;18.206;2023-04-23T03:58:28;99074.78;;;9.45;52.89
34103;BME280;20381;54.498;18.206;2023-04-23T04:00:54;99069.33;;;9.50;52.86
34103;BME280;20381;54.498;18.206;2023-04-23T04:03:20;99072.31;;;9.51;52.86
34103;BME280;20381;54.498;18.206;2023-04-23T04:05:47;99073.55;;;9.52;52.90
34103;BME280;20381;54.498;18.206;2023-04-23T04:08:13;99075.05;;;9.56;53.02
34103;BME280;20381;54.498;18.206;2023-04-23T04:10:39;99071.34;;;9.60;53.10
34103;BME280;20381;54.498;18.206;2023-04-23T04:13:06;99074.55;;;9.66;53.06
34103;BME280;20381;54.498;18.206;2023-04-23T04:15:35;99071.70;;;9.70;52.97
34103;BME280;20381;54.498;18.206;2023-04-23T04:18:03;99062.34;;;9.75;52.89
34103;BME280;20381;54.498;18.206;2023-04-23T04:20:29;99064.61;;;9.81;52.92
34103;BME280;20381;54.498;18.206;2023-04-23T04:22:56;99062.97;;;9.87;52.92
34103;BME280;20381;54.498;18.206;2023-04-23T04:25:23;99063.75;;;9.96;52.92
34103;BME280;20381;54.498;18.206;2023-04-23T04:27:49;99057.28;;;10.03;52.87
34103;BME280;20381;54.498;18.206;2023-04-23T04:30:16;99058.00;;;10.14;52.87
34103;BME280;20381;54.498;18.206;2023-04-23T04:32:42;99064.46;;;10.23;52.78
34103;BME280;20381;54.498;18.206;2023-04-23T04:35:10;99059.11;;;10.33;52.77
34103;BME280;20381;54.498;18.206;2023-04-23T04:37:38;99059.92;;;10.42;52.70
34103;BME280;20381;54.498;18.206;2023-04-23T04:40:06;99060.32;;;10.50;52.72
34103;BME280;20381;54.498;18.206;2023-04-23T04:42:32;99061.09;;;10.60;52.61
34103;BME280;20381;54.498;18.206;2023-04-23T04:44:58;99054.20;;;10.66;52.55
34103;BME280;20381;54.498;18.206;2023-04-23T04:47:25;99048.61;;;10.72;52.54
34103;BME280;20381;54.498;18.206;2023-04-23T04:49:51;99050.70;;;10.81;52.52
34103;BME280;20381;54.498;18.206;2023-04-23T04:52:23;99047.14;;;10.89;52.60
34103;BME280;20381;54.498;18.206;2023-04-23T04:54:49;99046.05;;;11.01;52.46
34103;BME280;20381;54.498;18.206;2023-04-23T04:57:16;99040.29;;;11.10;52.31
34103;BME280;20381;54.498;18.206;2023-04-23T04:59:42;99043.09;;;11.21;52.38
34103;BME280;20381;54.498;18.206;2023-04-23T05:02:08;99033.67;;;11.40;52.17
34103;BME280;20381;54.498;18.206;2023-04-23T05:04:34;99033.67;;;11.40;52.17
34103;BME280;20381;54.498;18.206;2023-04-23T05:07:01;99034.28;;;11.51;52.21
34103;BME280;20381;54.498;18.206;2023-04-23T05:09:27;99031.29;;;11.64;52.17
34103;BME280;20381;54.498;18.206;2023-04-23T05:11:53;99028.55;;;11.87;51.95
34103;BME280;20381;54.498;18.206;2023-04-23T05:14:19;99028.55;;;11.87;51.95
34103;BME280;20381;54.498;18.206;2023-04-23T05:16:46;99027.32;;;12.00;51.92
34103;BME280;20381;54.498;18.206;2023-04-23T05:19:12;99028.30;;;12.12;51.88
34103;BME280;20381;54.498;18.206;2023-04-23T05:21:39;99022.64;;;12.25;51.79
34103;BME280;20381;54.498;18.206;2023-04-23T05:24:05;99002.75;;;12.22;51.90
34103;BME280;20381;54.498;18.206;2023-04-23T05:26:32;99022.64;;;12.45;51.70
34103;BME280;20381;54.498;18.206;2023-04-23T05:28:58;99016.22;;;12.56;51.40
34103;BME280;20381;54.498;18.206;2023-04-23T05:31:24;99013.94;;;12.64;51.35
34103;BME280;20381;54.498;18.206;2023-04-23T05:33:51;99018.34;;;12.76;51.35
34103;BME280;20381;54.498;18.206;2023-04-23T05:36:18;99014.91;;;12.89;51.16
34103;BME280;20381;54.498;18.206;2023-04-23T05:38:45;99013.10;;;13.02;51.36
34103;BME280;20381;54.498;18.206;2023-04-23T05:41:12;99017.30;;;13.17;50.88
34103;BME280;20381;54.498;18.206;2023-04-23T05:43:38;99014.50;;;13.33;50.92
34103;BME280;20381;54.498;18.206;2023-04-23T05:46:05;99015.20;;;13.48;50.97
34103;BME280;20381;54.498;18.206;2023-04-23T05:48:33;99010.55;;;13.64;51.21
34103;BME280;20381;54.498;18.206;2023-04-23T05:50:59;98998.94;;;13.80;50.58
34103;BME280;20381;54.498;18.206;2023-04-23T05:53:26;99003.45;;;13.96;50.80
34103;BME280;20381;54.498;18.206;2023-04-23T05:55:53;99012.11;;;14.09;50.13
34103;BME280;20381;54.498;18.206;2023-04-23T05:58:19;98999.52;;;14.20;49.05
34103;BME280;20381;54.498;18.206;2023-04-23T06:00:46;99005.41;;;14.35;49.08
34103;BME280;20381;54.498;18.206;2023-04-23T06:03:12;98999.53;;;14.55;50.06
34103;BME280;20381;54.498;18.206;2023-04-23T06:05:39;98998.65;;;14.79;50.12
34103;BME280;20381;54.498;18.206;2023-04-23T06:08:07;98992.94;;;15.08;49.96
34103;BME280;20381;54.498;18.206;2023-04-23T06:10:33;98991.03;;;15.43;49.73
34103;BME280;20381;54.498;18.206;2023-04-23T06:13:00;98988.83;;;15.60;49.46
34103;BME280;20381;54.498;18.206;2023-04-23T06:15:26;98992.57;;;15.74;49.58
34103;BME280;20381;54.498;18.206;2023-04-23T06:17:52;98975.27;;;15.93;49.51
34103;BME280;20381;54.498;18.206;2023-04-23T06:20:19;98982.63;;;16.10;49.01
34103;BME280;20381;54.498;18.206;2023-04-23T06:22:46;98983.05;;;16.26;48.36
34103;BME280;20381;54.498;18.206;2023-04-23T06:25:12;98968.30;;;16.29;47.50
34103;BME280;20381;54.498;18.206;2023-04-23T06:27:38;98971.85;;;16.40;47.72
34103;BME280;20381;54.498;18.206;2023-04-23T06:30:06;98970.70;;;16.53;47.78
34103;BME280;20381;54.498;18.206;2023-04-23T06:32:33;98963.67;;;16.69;47.34
34103;BME280;20381;54.498;18.206;2023-04-23T06:34:59;98962.04;;;16.84;47.23
34103;BME280;20381;54.498;18.206;2023-04-23T06:37:25;98965.05;;;17.00;46.36
34103;BME280;20381;54.498;18.206;2023-04-23T06:39:53;98965.36;;;17.16;46.79
34103;BME280;20381;54.498;18.206;2023-04-23T06:42:20;98957.23;;;17.29;46.54
34103;BME280;20381;54.498;18.206;2023-04-23T06:44:46;98960.42;;;17.48;46.11
34103;BME280;20381;54.498;18.206;2023-04-23T06:47:13;98954.14;;;17.64;45.71
34103;BME280;20381;54.498;18.206;2023-04-23T06:49:40;98952.95;;;17.88;46.21
34103;BME280;20381;54.498;18.206;2023-04-23T06:52:06;98957.11;;;18.00;44.06
34103;BME280;20381;54.498;18.206;2023-04-23T06:54:33;98950.86;;;18.40;45.66
34103;BME280;20381;54.498;18.206;2023-04-23T06:56:59;98950.86;;;18.40;45.66
34103;BME280;20381;54.498;18.206;2023-04-23T06:59:26;98942.73;;;18.71;43.86
34103;BME280;20381;54.498;18.206;2023-04-23T07:01:52;98944.30;;;18.87;41.96
34103;BME280;20381;54.498;18.206;2023-04-23T07:04:18;98943.78;;;18.97;43.15
34103;BME280;20381;54.498;18.206;2023-04-23T07:06:45;98943.30;;;19.12;41.99
34103;BME280;20381;54.498;18.206;2023-04-23T07:09:11;98939.73;;;19.44;41.61
34103;BME280;20381;54.498;18.206;2023-04-23T07:11:38;98942.28;;;19.96;42.23
34103;BME280;20381;54.498;18.206;2023-04-23T07:14:04;98931.09;;;20.46;37.82
34103;BME280;20381;54.498;18.206;2023-04-23T07:16:31;98926.69;;;20.76;40.62
34103;BME280;20381;54.498;18.206;2023-04-23T07:19:03;98923.93;;;21.24;41.03
34103;BME280;20381;54.498;18.206;2023-04-23T07:21:28;98921.12;;;21.81;40.02
34103;BME280;20381;54.498;18.206;2023-04-23T07:23:56;98921.19;;;22.38;39.35
34103;BME280;20381;54.498;18.206;2023-04-23T07:26:25;98915.74;;;23.04;37.84
34103;BME280;20381;54.498;18.206;2023-04-23T07:28:52;98911.94;;;23.73;39.46
34103;BME280;20381;54.498;18.206;2023-04-23T07:31:19;98903.72;;;24.62;38.43
34103;BME280;20381;54.498;18.206;2023-04-23T07:33:46;98906.02;;;25.50;39.07
34103;BME280;20381;54.498;18.206;2023-04-23T07:36:15;98901.23;;;26.03;34.39
34103;BME280;20381;54.498;18.206;2023-04-23T07:38:41;98894.94;;;25.89;30.24
34103;BME280;20381;54.498;18.206;2023-04-23T07:41:08;98893.30;;;25.74;31.59
34103;BME280;20381;54.498;18.206;2023-04-23T07:43:34;98895.19;;;26.16;34.17
34103;BME280;20381;54.498;18.206;2023-04-23T07:46:00;98892.71;;;26.88;34.39
34103;BME280;20381;54.498;18.206;2023-04-23T07:48:27;98883.78;;;27.71;34.77
34103;BME280;20381;54.498;18.206;2023-04-23T07:50:53;98875.49;;;28.29;32.29
34103;BME280;20381;54.498;18.206;2023-04-23T07:53:20;98881.47;;;28.58;29.90
34103;BME280;20381;54.498;18.206;2023-04-23T07:55:48;98883.23;;;28.97;30.80
34103;BME280;20381;54.498;18.206;2023-04-23T07:58:14;98874.93;;;29.12;28.50
34103;BME280;20381;54.498;18.206;2023-04-23T08:00:40;98887.46;;;29.32;27.04
34103;BME280;20381;54.498;18.206;2023-04-23T08:03:06;98884.65;;;29.58;27.35
34103;BME280;20381;54.498;18.206;2023-04-23T08:05:32;98874.52;;;29.92;27.92
34103;BME280;20381;54.498;18.206;2023-04-23T08:07:59;98878.09;;;30.27;25.96
34103;BME280;20381;54.498;18.206;2023-04-23T08:10:25;98878.13;;;30.36;25.37
34103;BME280;20381;54.498;18.206;2023-04-23T08:12:51;98867.88;;;29.95;24.11
34103;BME280;20381;54.498;18.206;2023-04-23T08:15:17;98858.35;;;30.33;24.71
34103;BME280;20381;54.498;18.206;2023-04-23T08:17:43;98863.48;;;30.69;24.71
34103;BME280;20381;54.498;18.206;2023-04-23T08:20:13;98860.05;;;31.17;25.42
34103;BME280;20381;54.498;18.206;2023-04-23T08:22:40;98858.03;;;31.61;22.00
34103;BME280;20381;54.498;18.206;2023-04-23T08:25:07;98854.27;;;32.04;24.79
34103;BME280;20381;54.498;18.206;2023-04-23T08:27:34;98851.64;;;31.85;20.95
34103;BME280;20381;54.498;18.206;2023-04-23T08:30:00;98848.22;;;31.78;22.23
34103;BME280;20381;54.498;18.206;2023-04-23T08:32:27;98847.33;;;31.75;23.05
34103;BME280;20381;54.498;18.206;2023-04-23T08:34:54;98846.14;;;32.01;22.67
34103;BME280;20381;54.498;18.206;2023-04-23T08:37:20;98844.50;;;32.59;22.88
34103;BME280;20381;54.498;18.206;2023-04-23T08:39:46;98840.77;;;33.12;22.55
34103;BME280;20381;54.498;18.206;2023-04-23T08:42:57;98837.63;;;33.18;20.22
34103;BME280;20381;54.498;18.206;2023-04-23T08:44:58;98838.92;;;33.15;19.68
34103;BME280;20381;54.498;18.206;2023-04-23T08:47:27;98834.11;;;33.17;21.92
34103;BME280;20381;54.498;18.206;2023-04-23T08:49:57;98829.05;;;33.81;20.64
34103;BME280;20381;54.498;18.206;2023-04-23T08:52:26;98815.16;;;34.28;21.41
34103;BME280;20381;54.498;18.206;2023-04-23T08:54:58;98815.16;;;34.28;21.41
34103;BME280;20381;54.498;18.206;2023-04-23T08:57:23;98823.23;;;34.23;20.54
34103;BME280;20381;54.498;18.206;2023-04-23T08:59:50;98822.44;;;34.25;20.01
34103;BME280;20381;54.498;18.206;2023-04-23T09:02:17;98821.66;;;34.46;19.65
34103;BME280;20381;54.498;18.206;2023-04-23T09:04:44;98820.73;;;34.38;19.66
34103;BME280;20381;54.498;18.206;2023-04-23T09:07:11;98820.25;;;34.61;20.27
34103;BME280;20381;54.498;18.206;2023-04-23T09:09:38;98816.04;;;35.14;19.56
34103;BME280;20381;54.498;18.206;2023-04-23T09:12:06;98815.39;;;35.85;20.44
34103;BME280;20381;54.498;18.206;2023-04-23T09:14:33;98810.13;;;36.51;19.91
34103;BME280;20381;54.498;18.206;2023-04-23T09:17:01;98805.00;;;37.20;20.38
34103;BME280;20381;54.498;18.206;2023-04-23T09:19:28;98808.36;;;38.06;19.16
34103;BME280;20381;54.498;18.206;2023-04-23T09:21:57;98807.20;;;38.48;19.13
34103;BME280;20381;54.498;18.206;2023-04-23T09:24:27;98803.84;;;38.67;19.24
34103;BME280;20381;54.498;18.206;2023-04-23T09:26:57;98812.39;;;38.29;17.32
34103;BME280;20381;54.498;18.206;2023-04-23T09:29:24;98805.59;;;38.22;17.31
34103;BME280;20381;54.498;18.206;2023-04-23T09:31:54;98807.76;;;38.25;18.32
34103;BME280;20381;54.498;18.206;2023-04-23T09:34:21;98811.55;;;38.49;17.70
34103;BME280;20381;54.498;18.206;2023-04-23T09:36:50;98800.62;;;38.55;17.81
34103;BME280;20381;54.498;18.206;2023-04-23T09:39:21;98806.36;;;38.45;17.15
34103;BME280;20381;54.498;18.206;2023-04-23T09:41:46;98796.29;;;38.33;16.76
34103;BME280;20381;54.498;18.206;2023-04-23T09:44:20;98792.22;;;38.20;16.80
34103;BME280;20381;54.498;18.206;2023-04-23T09:46:51;98791.66;;;38.44;17.01
34103;BME280;20381;54.498;18.206;2023-04-23T09:49:17;98790.59;;;38.19;16.39
34103;BME280;20381;54.498;18.206;2023-04-23T09:51:46;98782.99;;;37.91;15.92
34103;BME280;20381;54.498;18.206;2023-04-23T09:54:19;98791.71;;;37.70;16.41
34103;BME280;20381;54.498;18.206;2023-04-23T09:56:50;98777.84;;;37.79;15.43
34103;BME280;20381;54.498;18.206;2023-04-23T09:59:26;98780.80;;;37.47;14.92
34103;BME280;20381;54.498;18.206;2023-04-23T10:01:55;98778.22;;;36.94;15.45
34103;BME280;20381;54.498;18.206;2023-04-23T10:04:23;98771.77;;;37.10;15.48
34103;BME280;20381;54.498;18.206;2023-04-23T10:06:54;98756.33;;;37.62;16.07
34103;BME280;20381;54.498;18.206;2023-04-23T10:09:22;98756.30;;;37.82;15.76
34103;BME280;20381;54.498;18.206;2023-04-23T10:12:00;98764.20;;;38.10;15.87
34103;BME280;20381;54.498;18.206;2023-04-23T10:14:25;98750.16;;;38.57;15.52
34103;BME280;20381;54.498;18.206;2023-04-23T10:16:58;98751.77;;;38.63;14.82
34103;BME280;20381;54.498;18.206;2023-04-23T10:19:25;98740.95;;;38.35;14.42
34103;BME280;20381;54.498;18.206;2023-04-23T10:21:58;98758.47;;;38.03;14.82
34103;BME280;20381;54.498;18.206;2023-04-23T10:24:39;98756.30;;;37.77;14.83
34103;BME280;20381;54.498;18.206;2023-04-23T10:27:10;98751.63;;;38.14;15.15
34103;BME280;20381;54.498;18.206;2023-04-23T10:29:37;98743.13;;;38.33;14.29
34103;BME280;20381;54.498;18.206;2023-04-23T10:32:05;98743.50;;;37.83;13.89
34103;BME280;20381;54.498;18.206;2023-04-23T10:34:32;98749.72;;;38.14;14.83
34103;BME280;20381;54.498;18.206;2023-04-23T10:37:00;98736.09;;;38.89;14.79
34103;BME280;20381;54.498;18.206;2023-04-23T10:39:32;98738.45;;;39.46;14.58
34103;BME280;20381;54.498;18.206;2023-04-23T10:42:00;98739.73;;;39.19;13.79
34103;BME280;20381;54.498;18.206;2023-04-23T10:44:36;98730.46;;;39.15;13.92
34103;BME280;20381;54.498;18.206;2023-04-23T10:47:05;98718.71;;;38.70;13.88
34103;BME280;20381;54.498;18.206;2023-04-23T10:49:35;98718.23;;;38.63;12.64
34103;BME280;20381;54.498;18.206;2023-04-23T10:52:14;98722.03;;;38.62;13.92
34103;BME280;20381;54.498;18.206;2023-04-23T10:54:42;98723.09;;;38.71;13.85
34103;BME280;20381;54.498;18.206;2023-04-23T10:57:09;98725.09;;;39.05;12.81
34103;BME280;20381;54.498;18.206;2023-04-23T10:59:50;98717.39;;;39.12;13.50
34103;BME280;20381;54.498;18.206;2023-04-23T11:02:10;98720.29;;;38.86;12.77
34103;BME280;20381;54.498;18.206;2023-04-23T11:04:43;98709.09;;;38.85;13.32
34103;BME280;20381;54.498;18.206;2023-04-23T11:07:12;98710.04;;;38.63;12.44
34103;BME280;20381;54.498;18.206;2023-04-23T11:09:44;98715.70;;;38.06;12.41
34103;BME280;20381;54.498;18.206;2023-04-23T11:14:57;98717.48;;;38.44;12.52
34103;BME280;20381;54.498;18.206;2023-04-23T11:22:41;98690.34;;;36.86;12.61
34103;BME280;20381;54.498;18.206;2023-04-23T11:25:14;98692.05;;;37.17;12.83
34103;BME280;20381;54.498;18.206;2023-04-23T11:27:42;98691.76;;;37.16;12.14
34103;BME280;20381;54.498;18.206;2023-04-23T11:30:14;98688.19;;;36.95;13.01
34103;BME280;20381;54.498;18.206;2023-04-23T11:32:43;98680.34;;;37.09;12.49
34103;BME280;20381;54.498;18.206;2023-04-23T11:35:15;98679.79;;;37.07;12.75
34103;BME280;20381;54.498;18.206;2023-04-23T11:37:43;98684.70;;;37.26;12.85
34103;BME280;20381;54.498;18.206;2023-04-23T11:40:12;98679.22;;;36.95;12.78
34103;BME280;20381;54.498;18.206;2023-04-23T11:42:44;98676.70;;;36.65;12.94
34103;BME280;20381;54.498;18.206;2023-04-23T11:45:18;98662.02;;;36.69;13.11
34103;BME280;20381;54.498;18.206;2023-04-23T11:47:47;98659.73;;;36.30;12.70
34103;BME280;20381;54.498;18.206;2023-04-23T11:50:21;98658.42;;;35.90;12.98
34103;BME280;20381;54.498;18.206;2023-04-23T11:52:48;98670.31;;;35.41;13.22
34103;BME280;20381;54.498;18.206;2023-04-23T11:55:16;98663.86;;;34.88;13.37
34103;BME280;20381;54.498;18.206;2023-04-23T11:57:47;98661.36;;;35.09;13.56
34103;BME280;20381;54.498;18.206;2023-04-23T12:00:19;98663.61;;;34.19;13.30
34103;BME280;20381;54.498;18.206;2023-04-23T12:02:59;98667.31;;;33.74;13.88
34103;BME280;20381;54.498;18.206;2023-04-23T12:05:38;98666.41;;;33.51;14.21
34103;BME280;20381;54.498;18.206;2023-04-23T12:08:19;98658.61;;;33.72;14.19
34103;BME280;20381;54.498;18.206;2023-04-23T12:10:51;98662.58;;;33.47;13.92
34103;BME280;20381;54.498;18.206;2023-04-23T12:13:29;98658.38;;;32.48;14.52
34103;BME280;20381;54.498;18.206;2023-04-23T12:16:01;98659.81;;;31.89;15.07
34103;BME280;20381;54.498;18.206;2023-04-23T12:18:32;98655.91;;;31.48;15.29
34103;BME280;20381;54.498;18.206;2023-04-23T12:21:11;98637.91;;;30.76;15.35
34103;BME280;20381;54.498;18.206;2023-04-23T12:23:40;98652.64;;;29.70;16.27
34103;BME280;20381;54.498;18.206;2023-04-23T12:26:14;98660.02;;;28.61;16.86
34103;BME280;20381;54.498;18.206;2023-04-23T12:28:57;98660.68;;;27.71;17.58
34103;BME280;20381;54.498;18.206;2023-04-23T12:31:21;98651.36;;;26.87;18.45
34103;BME280;20381;54.498;18.206;2023-04-23T12:34:05;98653.40;;;26.24;18.32
34103;BME280;20381;54.498;18.206;2023-04-23T12:36:34;98654.60;;;25.80;18.18
34103;BME280;20381;54.498;18.206;2023-04-23T12:39:29;98666.55;;;25.28;19.89
34103;BME280;20381;54.498;18.206;2023-04-23T12:41:52;98661.63;;;24.77;19.81
34103;BME280;20381;54.498;18.206;2023-04-23T12:44:19;98654.04;;;24.34;19.79
34103;BME280;20381;54.498;18.206;2023-04-23T12:46:57;98656.89;;;24.03;21.99
34103;BME280;20381;54.498;18.206;2023-04-23T12:49:26;98646.95;;;23.67;20.83
34103;BME280;20381;54.498;18.206;2023-04-23T12:51:56;98644.45;;;23.51;21.96
34103;BME280;20381;54.498;18.206;2023-04-23T12:54:28;98655.09;;;23.13;23.32
34103;BME280;20381;54.498;18.206;2023-04-23T12:56:57;98645.97;;;22.84;22.81
34103;BME280;20381;54.498;18.206;2023-04-23T12:59:23;98641.78;;;22.63;22.67
34103;BME280;20381;54.498;18.206;2023-04-23T13:01:51;98641.23;;;22.44;23.13
34103;BME280;20381;54.498;18.206;2023-04-23T13:04:18;98632.33;;;22.33;23.17